Homer, Alaska
Current Conditions -  °F | °C
As of 3:53 AM on Monday 20 Oct 2014 (Local Time) from PAHO Reporting Station
Scattered Clouds Scattered Clouds  
Wind Chill: 33°   Ceiling: Unl
Heat Index: 33°   Visibility: 10mi
Dew Point: 26°   Wind: 0mph
Humidity: 75%   Direction: NA
Pressure: 28.99"   Gusts: NA
Location:  59.64°N, 151.55°W
Report Text: PAHO 201153Z AUTO 00000KT 10SM SCT110 01/M03 A2899 RMK AO2 SLP817 T00061033 10039 20006 56009 TSNO
Loading
Personal Weather Stations






























Interactive Weather Map
Tropical Storm Tracking
New forecast layout! Learn more

10-Day Weather Forecast

Advertisements
Track Severe Weather on mobile